createdAt,value
2018-12-14T00:02:05.322Z,2.20
2018-12-14T00:04:33.615Z,2.20
2018-12-14T00:07:02.225Z,2.53
2018-12-14T00:09:30.445Z,2.62
2018-12-14T00:11:59.303Z,2.70
2018-12-14T00:14:27.608Z,2.50
2018-12-14T00:16:58.072Z,2.60
2018-12-14T00:19:26.283Z,2.60
2018-12-14T00:21:54.453Z,2.53
2018-12-14T00:24:22.915Z,2.27
2018-12-14T00:26:52.015Z,2.60
2018-12-14T00:29:21.496Z,2.53
2018-12-14T00:31:50.768Z,2.67
2018-12-14T00:34:19.002Z,3.02
2018-12-14T00:36:48.079Z,2.93
2018-12-14T00:39:16.703Z,2.97
2018-12-14T00:41:44.919Z,2.57
2018-12-14T00:44:13.339Z,2.90
2018-12-14T00:46:45.471Z,2.67
2018-12-14T00:49:13.847Z,2.87
2018-12-14T00:51:42.087Z,2.83
2018-12-14T00:54:10.487Z,3.00
2018-12-14T00:56:38.916Z,2.23
2018-12-14T00:59:07.431Z,2.40
2018-12-14T01:01:36.281Z,2.53
2018-12-14T01:04:05.387Z,3.10
2018-12-14T01:06:33.751Z,2.87
2018-12-14T01:09:02.000Z,2.63
2018-12-14T01:11:31.136Z,2.72
2018-12-14T01:13:59.339Z,2.53
2018-12-14T01:16:27.776Z,2.63
2018-12-14T01:18:56.147Z,3.07
2018-12-14T01:21:24.992Z,2.93
2018-12-14T01:23:53.259Z,2.93
2018-12-14T01:26:21.400Z,3.20
2018-12-14T01:28:50.397Z,3.13
2018-12-14T01:31:18.496Z,3.43
2018-12-14T01:33:47.335Z,2.47
2018-12-14T01:36:15.991Z,2.80
2018-12-14T01:38:44.098Z,2.87
2018-12-14T01:41:12.315Z,2.67
2018-12-14T01:43:40.392Z,2.80
2018-12-14T01:46:08.767Z,2.90
2018-12-14T01:48:37.771Z,2.63
2018-12-14T01:51:06.179Z,2.40
2018-12-14T01:53:34.734Z,2.80
2018-12-14T01:56:03.051Z,2.60
2018-12-14T01:58:31.280Z,2.23
2018-12-14T02:00:59.402Z,2.40
2018-12-14T02:03:27.626Z,2.43
2018-12-14T02:06:01.019Z,2.40
2018-12-14T02:08:29.313Z,2.12
2018-12-14T02:10:57.727Z,2.00
2018-12-14T02:13:26.239Z,2.25
2018-12-14T02:15:54.776Z,2.00
2018-12-14T02:18:23.507Z,2.13
2018-12-14T02:20:52.127Z,1.70
2018-12-14T02:23:20.631Z,1.53
2018-12-14T02:25:50.885Z,2.60
2018-12-14T02:28:19.484Z,1.80
2018-12-14T02:30:47.815Z,2.03
2018-12-14T02:33:15.925Z,1.80
2018-12-14T02:35:44.447Z,2.00
2018-12-14T02:38:12.540Z,1.90
2018-12-14T02:40:41.188Z,1.67
2018-12-14T02:43:09.981Z,2.33
2018-12-14T02:45:38.284Z,2.00
2018-12-14T02:48:06.615Z,1.90
2018-12-14T02:50:34.916Z,1.60
2018-12-14T02:53:03.928Z,1.50
2018-12-14T02:55:32.131Z,1.43
2018-12-14T02:58:01.248Z,1.60
2018-12-14T03:00:29.529Z,1.42
2018-12-14T03:02:58.630Z,1.57
2018-12-14T03:05:28.211Z,1.65
2018-12-14T03:07:56.482Z,1.60
2018-12-14T03:10:25.111Z,1.70
2018-12-14T03:12:53.991Z,1.47
2018-12-14T03:15:23.035Z,1.42
2018-12-14T03:17:51.292Z,1.67
2018-12-14T03:20:19.641Z,1.50
2018-12-14T03:22:48.676Z,1.57
2018-12-14T03:25:17.462Z,1.10
2018-12-14T03:27:46.541Z,1.37
2018-12-14T03:30:15.984Z,1.50
2018-12-14T03:32:44.515Z,1.70
2018-12-14T03:35:12.803Z,1.53
2018-12-14T03:37:41.237Z,1.73
2018-12-14T03:40:09.519Z,2.23
2018-12-14T03:42:37.995Z,1.50
2018-12-14T03:45:06.979Z,1.40
2018-12-14T03:47:35.284Z,1.70
2018-12-14T03:50:04.992Z,1.80
2018-12-14T03:52:33.203Z,1.37
2018-12-14T03:55:01.589Z,1.80
2018-12-14T03:57:30.747Z,1.57
2018-12-14T04:00:00.123Z,1.80
2018-12-14T04:02:28.819Z,1.50
2018-12-14T04:04:57.131Z,1.90
2018-12-14T04:07:25.315Z,1.70
2018-12-14T04:09:53.656Z,1.53
2018-12-14T04:12:22.959Z,1.80
2018-12-14T04:14:51.131Z,1.50
2018-12-14T04:17:19.495Z,1.73
2018-12-14T04:19:48.107Z,1.57
2018-12-14T04:22:16.781Z,1.73
2018-12-14T04:24:45.142Z,1.63
2018-12-14T04:27:13.455Z,2.10
2018-12-14T04:29:41.688Z,1.30
2018-12-14T04:32:10.524Z,1.73
2018-12-14T04:34:38.897Z,1.80
2018-12-14T04:37:07.424Z,2.13
2018-12-14T04:39:35.521Z,1.70
2018-12-14T04:42:04.097Z,1.70
2018-12-14T04:44:32.552Z,2.03
2018-12-14T04:47:00.824Z,1.90
2018-12-14T04:49:29.967Z,1.53
2018-12-14T04:51:59.000Z,1.50
2018-12-14T04:54:28.159Z,1.67
2018-12-14T04:56:57.400Z,2.00
2018-12-14T04:59:25.826Z,2.80
2018-12-14T05:01:54.728Z,2.17
2018-12-14T05:04:23.031Z,2.47
2018-12-14T05:06:51.147Z,1.90
2018-12-14T05:09:19.294Z,2.20
2018-12-14T05:11:47.987Z,1.87
2018-12-14T05:14:17.394Z,2.10
2018-12-14T05:16:46.944Z,2.25
2018-12-14T05:19:15.011Z,2.53
2018-12-14T05:21:43.847Z,2.00
2018-12-14T05:24:12.476Z,2.00
2018-12-14T05:26:40.675Z,2.30
2018-12-14T05:29:09.016Z,2.20
2018-12-14T05:31:38.171Z,1.97
2018-12-14T05:34:06.632Z,1.77
2018-12-14T05:36:35.399Z,1.73
2018-12-14T05:39:05.941Z,2.40
2018-12-14T05:41:34.023Z,2.00
2018-12-14T05:44:02.628Z,2.17
2018-12-14T05:46:30.803Z,2.00
2018-12-14T05:48:59.023Z,1.90
2018-12-14T05:51:27.418Z,1.80
2018-12-14T05:53:55.583Z,2.27
2018-12-14T05:56:24.283Z,1.67
2018-12-14T05:58:52.515Z,2.03
2018-12-14T06:01:21.564Z,2.37
2018-12-14T06:03:51.597Z,2.95
2018-12-14T06:06:19.927Z,2.90
2018-12-14T06:08:48.216Z,2.15
2018-12-14T06:11:16.586Z,2.17
2018-12-14T06:13:45.011Z,2.08
2018-12-14T06:16:13.275Z,2.27
2018-12-14T06:18:41.623Z,1.95
2018-12-14T06:21:09.958Z,2.30
2018-12-14T06:23:38.655Z,2.22
2018-12-14T06:26:07.423Z,2.10
2018-12-14T06:28:35.687Z,2.13
2018-12-14T06:31:04.227Z,1.83
2018-12-14T06:33:32.603Z,2.90
2018-12-14T06:36:01.444Z,2.53
2018-12-14T06:38:29.647Z,2.87
2018-12-14T06:40:58.324Z,2.53
2018-12-14T06:43:26.691Z,2.90
2018-12-14T06:45:54.811Z,2.73
2018-12-14T06:48:22.981Z,2.90
2018-12-14T06:50:51.569Z,3.17
2018-12-14T06:53:19.815Z,3.10
2018-12-14T06:55:48.067Z,3.07
2018-12-14T06:58:16.704Z,3.03
2018-12-14T07:00:44.954Z,3.55
2018-12-14T07:03:14.957Z,3.50
2018-12-14T07:05:43.701Z,3.97
2018-12-14T07:08:11.958Z,3.70
2018-12-14T07:10:40.239Z,3.90
2018-12-14T07:13:09.323Z,3.57
2018-12-14T07:15:37.890Z,3.60
2018-12-14T07:18:07.148Z,3.97
2018-12-14T07:20:36.235Z,3.45
2018-12-14T07:23:04.888Z,3.43
2018-12-14T07:25:33.368Z,3.47
2018-12-14T07:28:02.056Z,2.87
2018-12-14T07:30:30.139Z,3.70
2018-12-14T07:32:58.641Z,3.77
2018-12-14T07:35:27.212Z,4.30
2018-12-14T07:37:55.684Z,3.83
2018-12-14T07:40:23.979Z,3.80
2018-12-14T07:42:52.471Z,3.55
2018-12-14T07:45:20.563Z,4.23
2018-12-14T07:47:48.791Z,3.73
2018-12-14T07:50:16.999Z,4.07
2018-12-14T07:52:45.595Z,3.83
2018-12-14T07:55:14.100Z,3.77
2018-12-14T07:57:42.710Z,3.13
2018-12-14T08:00:11.014Z,4.10
2018-12-14T08:02:39.274Z,3.83
2018-12-14T08:05:08.675Z,4.10
2018-12-14T08:07:36.921Z,4.20
2018-12-14T08:10:05.756Z,3.30
2018-12-14T08:12:34.810Z,3.77
2018-12-14T08:15:03.040Z,4.67
2018-12-14T08:17:31.515Z,4.20
2018-12-14T08:19:59.740Z,4.57
2018-12-14T08:22:28.071Z,3.90
2018-12-14T08:24:57.067Z,3.93
2018-12-14T08:27:25.943Z,3.93
2018-12-14T08:29:54.174Z,3.37
2018-12-14T08:32:38.292Z,4.20
2018-12-14T08:35:07.102Z,3.93
2018-12-14T08:37:35.327Z,4.17
2018-12-14T08:40:03.687Z,3.87
2018-12-14T08:42:32.056Z,3.53
2018-12-14T08:45:00.325Z,3.83
2018-12-14T08:47:28.630Z,4.63
2018-12-14T08:49:57.073Z,5.20
2018-12-14T08:52:25.148Z,4.20
2018-12-14T08:54:53.464Z,4.50
2018-12-14T08:57:21.916Z,4.97
2018-12-14T08:59:50.695Z,4.47
2018-12-14T09:02:18.919Z,4.30
2018-12-14T09:04:47.711Z,3.80
2018-12-14T09:07:16.191Z,3.33
2018-12-14T09:09:44.327Z,3.85
2018-12-14T09:12:13.510Z,4.10
2018-12-14T09:14:42.403Z,3.83
2018-12-14T09:17:11.308Z,4.30
2018-12-14T09:19:39.519Z,4.77
2018-12-14T09:22:08.379Z,3.57
2018-12-14T09:24:37.155Z,3.47
2018-12-14T09:27:05.297Z,3.87
2018-12-14T09:29:34.011Z,4.73
2018-12-14T09:32:03.928Z,4.63
2018-12-14T09:34:32.255Z,4.57
2018-12-14T09:37:01.442Z,4.62
2018-12-14T09:39:29.708Z,4.60
2018-12-14T09:41:58.759Z,3.85
2018-12-14T09:44:27.663Z,4.40
2018-12-14T09:46:56.515Z,4.70
2018-12-14T09:49:25.343Z,3.30
2018-12-14T09:51:53.629Z,3.60
2018-12-14T09:54:23.383Z,3.87
2018-12-14T09:56:51.587Z,4.10
2018-12-14T09:59:20.407Z,3.03
2018-12-14T10:02:53.151Z,3.80
2018-12-14T10:05:21.839Z,3.20
2018-12-14T10:07:50.040Z,3.13
2018-12-14T10:10:18.533Z,3.50
2018-12-14T10:12:47.763Z,3.90
2018-12-14T10:15:15.947Z,4.30
2018-12-14T10:17:46.338Z,3.33
2018-12-14T10:20:15.267Z,4.17
2018-12-14T10:22:43.375Z,3.90
2018-12-14T10:25:12.091Z,3.43
2018-12-14T10:27:40.451Z,3.50
2018-12-14T10:30:09.922Z,4.20
2018-12-14T10:32:38.107Z,3.90
2018-12-14T10:35:08.135Z,3.60
2018-12-14T10:37:38.291Z,3.63
2018-12-14T10:40:08.428Z,3.23
2018-12-14T10:42:36.803Z,4.20
2018-12-14T10:45:05.970Z,4.20
2018-12-14T10:47:34.432Z,3.93
2018-12-14T10:50:03.464Z,4.37
2018-12-14T10:52:32.143Z,4.40
2018-12-14T10:55:01.878Z,4.17
2018-12-14T10:57:30.205Z,4.33
2018-12-14T10:59:58.555Z,4.13
2018-12-14T11:02:27.087Z,3.97
2018-12-14T11:04:55.831Z,4.33
2018-12-14T11:07:24.069Z,3.70
2018-12-14T11:09:52.260Z,4.27
2018-12-14T11:12:20.403Z,4.30
2018-12-14T11:14:48.767Z,4.00
2018-12-14T11:17:18.520Z,4.57
2018-12-14T11:19:48.280Z,4.70
2018-12-14T11:22:16.911Z,3.93
2018-12-14T11:24:44.988Z,4.00
2018-12-14T11:27:13.200Z,3.80
2018-12-14T11:29:43.011Z,3.53
2018-12-14T11:32:11.359Z,4.17
2018-12-14T11:34:39.619Z,4.17
2018-12-14T11:37:07.779Z,4.43
2018-12-14T11:39:36.946Z,4.10
2018-12-14T11:42:06.336Z,4.90
2018-12-14T11:44:34.559Z,4.17
2018-12-14T11:47:02.763Z,4.10
2018-12-14T11:49:31.296Z,4.13
2018-12-14T11:52:00.104Z,3.87
2018-12-14T11:54:28.308Z,3.80
2018-12-14T11:56:56.508Z,3.77
2018-12-14T11:59:25.636Z,4.23
2018-12-14T12:01:55.456Z,4.27
2018-12-14T12:04:23.903Z,4.60
2018-12-14T12:06:53.107Z,4.90
2018-12-14T12:09:23.421Z,3.90
2018-12-14T12:11:52.595Z,4.78
2018-12-14T12:14:26.801Z,3.92
2018-12-14T12:16:51.116Z,4.37
2018-12-14T12:19:21.091Z,4.47
2018-12-14T12:21:49.492Z,4.17
2018-12-14T12:24:17.551Z,4.27
2018-12-14T12:26:46.676Z,4.27
2018-12-14T12:29:14.953Z,4.37
2018-12-14T12:31:45.683Z,4.17
2018-12-14T12:34:19.571Z,4.27
2018-12-14T12:36:48.191Z,4.50
2018-12-14T12:39:16.585Z,4.00
2018-12-14T12:41:44.894Z,4.63
2018-12-14T12:44:12.989Z,3.80
2018-12-14T12:46:41.339Z,5.20
2018-12-14T12:49:09.665Z,4.67
2018-12-14T12:51:38.895Z,4.63
2018-12-14T12:54:07.595Z,4.30
2018-12-14T12:56:37.099Z,4.17
2018-12-14T12:59:06.794Z,4.13
2018-12-14T13:01:35.616Z,3.90
2018-12-14T13:04:03.962Z,4.10
2018-12-14T13:06:33.031Z,4.40
2018-12-14T13:09:01.661Z,4.03
2018-12-14T13:11:31.476Z,4.47
2018-12-14T13:14:00.148Z,3.90
2018-12-14T13:16:29.807Z,4.10
2018-12-14T13:18:58.119Z,4.73
2018-12-14T13:21:27.134Z,3.90
2018-12-14T13:23:55.491Z,4.23
2018-12-14T13:26:23.859Z,4.60
2018-12-14T13:28:51.941Z,5.08
2018-12-14T13:31:20.415Z,4.60
2018-12-14T13:33:49.417Z,4.00
2018-12-14T13:36:18.031Z,4.33
2018-12-14T13:38:46.185Z,4.03
2018-12-14T13:41:14.987Z,4.40
2018-12-14T13:43:43.359Z,3.90
2018-12-14T13:46:13.434Z,4.27
2018-12-14T13:48:42.129Z,4.17
2018-12-14T13:51:14.983Z,4.23
2018-12-14T13:53:44.003Z,3.80
2018-12-14T13:56:12.549Z,4.00
2018-12-14T13:58:41.563Z,4.00
2018-12-14T14:01:10.099Z,4.37
2018-12-14T14:03:38.933Z,4.47
2018-12-14T14:06:07.228Z,4.40
2018-12-14T14:08:39.076Z,4.12
2018-12-14T14:11:07.827Z,4.87
2018-12-14T14:13:35.931Z,4.83
2018-12-14T14:16:05.116Z,4.17
2018-12-14T14:18:33.756Z,5.37
2018-12-14T14:21:03.203Z,4.27
2018-12-14T14:23:32.471Z,4.97
2018-12-14T14:26:13.623Z,4.77
2018-12-14T14:28:41.919Z,4.77
2018-12-14T14:31:10.557Z,5.10
2018-12-14T14:33:39.499Z,5.50
2018-12-14T14:36:08.039Z,5.07
2018-12-14T14:38:37.095Z,4.47
2018-12-14T14:41:08.081Z,4.80
2018-12-14T14:43:37.340Z,4.30
2018-12-14T14:46:05.571Z,4.83
2018-12-14T14:48:34.736Z,5.05
2018-12-14T14:51:03.696Z,5.67
2018-12-14T14:53:32.039Z,5.03
2018-12-14T14:56:01.843Z,4.90
2018-12-14T14:58:29.927Z,5.43
2018-12-14T15:00:59.315Z,5.30
2018-12-14T15:03:27.922Z,5.13
2018-12-14T15:05:56.943Z,4.92
2018-12-14T15:08:26.927Z,5.90
2018-12-14T15:10:55.988Z,5.05
2018-12-14T15:13:27.335Z,4.67
2018-12-14T15:15:55.467Z,5.40
2018-12-14T15:18:24.081Z,4.97
2018-12-14T15:20:53.104Z,5.20
2018-12-14T15:23:21.827Z,5.13
2018-12-14T15:25:50.815Z,6.10
2018-12-14T15:28:21.387Z,4.87
2018-12-14T15:30:50.451Z,5.67
2018-12-14T15:33:20.745Z,5.37
2018-12-14T15:35:48.935Z,5.25
2018-12-14T15:38:17.674Z,4.83
2018-12-14T15:40:46.156Z,5.47
2018-12-14T15:43:14.778Z,4.93
2018-12-14T15:45:43.591Z,5.40
2018-12-14T15:48:11.691Z,5.50
2018-12-14T15:50:40.347Z,5.03
2018-12-14T15:53:09.585Z,5.00
2018-12-14T15:55:37.880Z,5.63
2018-12-14T15:58:07.620Z,4.70
2018-12-14T16:00:37.487Z,5.33
2018-12-14T16:03:05.735Z,4.83
2018-12-14T16:05:34.149Z,6.07
2018-12-14T16:08:04.219Z,6.50
2018-12-14T16:10:39.087Z,5.60
2018-12-14T16:13:08.964Z,5.93
2018-12-14T16:15:37.353Z,6.13
2018-12-14T16:18:05.615Z,5.07
2018-12-14T16:20:34.345Z,5.60
2018-12-14T16:23:03.874Z,5.63
2018-12-14T16:25:32.719Z,6.30
2018-12-14T16:28:01.442Z,5.83
2018-12-14T16:30:29.585Z,6.03
2018-12-14T16:32:58.692Z,6.17
2018-12-14T16:35:27.300Z,5.83
2018-12-14T16:37:55.700Z,6.13
2018-12-14T16:40:23.905Z,6.73
2018-12-14T16:42:52.099Z,5.57
2018-12-14T16:45:26.303Z,5.43
2018-12-14T16:47:50.459Z,5.90
2018-12-14T16:50:18.699Z,6.07
2018-12-14T16:52:47.775Z,6.80
2018-12-14T16:55:16.231Z,6.20
2018-12-14T16:57:44.928Z,6.37
2018-12-14T17:00:13.328Z,5.80
2018-12-14T17:02:41.588Z,6.10
2018-12-14T17:05:10.017Z,7.70
2018-12-14T17:07:38.427Z,7.43
2018-12-14T17:10:06.796Z,7.00
2018-12-14T17:12:36.655Z,8.07
2018-12-14T17:15:06.091Z,6.53
2018-12-14T17:17:34.781Z,7.10
2018-12-14T17:20:03.715Z,6.73
2018-12-14T17:22:31.771Z,6.10
2018-12-14T17:25:04.742Z,6.07
2018-12-14T17:27:32.859Z,6.17
2018-12-14T17:30:01.123Z,6.73
2018-12-14T17:32:30.704Z,6.80
2018-12-14T17:34:58.827Z,7.10
2018-12-14T17:37:27.117Z,6.53
2018-12-14T17:39:55.367Z,6.37
2018-12-14T17:42:23.659Z,5.70
2018-12-14T17:44:52.567Z,5.80
2018-12-14T17:47:21.000Z,6.63
2018-12-14T17:49:51.987Z,6.37
2018-12-14T17:52:20.395Z,6.50
2018-12-14T17:54:48.663Z,6.13
2018-12-14T17:57:17.538Z,6.27
2018-12-14T17:59:45.864Z,7.20
2018-12-14T18:02:15.357Z,7.97
2018-12-14T18:04:44.460Z,7.03
2018-12-14T18:07:14.069Z,7.20
2018-12-14T18:09:42.253Z,7.40
2018-12-14T18:12:11.079Z,7.27
2018-12-14T18:14:39.247Z,7.83
2018-12-14T18:17:08.187Z,6.90
2018-12-14T18:19:36.454Z,7.85
2018-12-14T18:22:06.716Z,7.47
2018-12-14T18:24:35.399Z,7.67
2018-12-14T18:27:04.742Z,10.30
2018-12-14T18:29:33.178Z,8.73
2018-12-14T18:32:01.339Z,12.77
2018-12-14T18:34:29.676Z,14.17
2018-12-14T18:36:58.475Z,15.47
2018-12-14T18:39:26.662Z,15.13
2018-12-14T18:41:55.659Z,12.87
2018-12-14T18:44:24.411Z,11.27
2018-12-14T18:46:53.651Z,12.40
2018-12-14T18:49:22.488Z,10.33
2018-12-14T18:51:51.911Z,10.33
2018-12-14T18:54:19.996Z,9.50
2018-12-14T18:56:49.391Z,9.77
2018-12-14T18:59:18.799Z,10.43
2018-12-14T19:01:47.547Z,8.90
2018-12-14T19:04:16.405Z,8.53
2018-12-14T19:06:45.438Z,9.03
2018-12-14T19:09:14.524Z,9.20
2018-12-14T19:11:43.551Z,8.33
2018-12-14T19:14:12.000Z,9.50
2018-12-14T19:16:40.946Z,9.40
2018-12-14T19:19:09.194Z,10.30
2018-12-14T19:21:37.703Z,10.73
2018-12-14T19:24:06.343Z,9.67
2018-12-14T19:26:35.419Z,10.10
2018-12-14T19:29:04.321Z,9.53
2018-12-14T19:31:32.603Z,9.68
2018-12-14T19:34:01.809Z,25.77
2018-12-14T19:36:32.630Z,11.28
2018-12-14T19:39:00.974Z,9.33
2018-12-14T19:41:29.373Z,10.18
2018-12-14T19:43:57.527Z,10.30
2018-12-14T19:46:25.819Z,9.93
2018-12-14T19:48:54.147Z,8.70
2018-12-14T19:51:22.295Z,8.98
2018-12-14T19:53:52.297Z,9.60
2018-12-14T19:56:20.827Z,9.30
2018-12-14T19:58:49.046Z,9.23
2018-12-14T20:01:17.394Z,9.03
2018-12-14T20:03:45.611Z,9.80
2018-12-14T20:06:17.134Z,10.17
2018-12-14T20:08:45.563Z,9.50
2018-12-14T20:11:13.659Z,9.37
2018-12-14T20:13:41.966Z,9.10
2018-12-14T20:16:12.949Z,9.17
2018-12-14T20:18:40.548Z,9.43
2018-12-14T20:21:09.447Z,9.80
2018-12-14T20:23:38.220Z,9.53
2018-12-14T20:26:06.646Z,9.33
2018-12-14T20:28:34.777Z,8.48
2018-12-14T20:31:04.054Z,9.13
2018-12-14T20:33:32.583Z,9.97
2018-12-14T20:36:01.023Z,10.43
2018-12-14T20:38:29.163Z,9.87
2018-12-14T20:40:57.303Z,9.77
2018-12-14T20:43:25.584Z,10.50
2018-12-14T20:45:53.655Z,9.30
2018-12-14T20:48:21.907Z,8.70
2018-12-14T20:50:50.215Z,10.10
2018-12-14T20:53:19.185Z,9.87
2018-12-14T20:55:47.247Z,8.43
2018-12-14T20:58:15.492Z,9.07
2018-12-14T21:00:43.668Z,9.38
2018-12-14T21:03:11.920Z,8.53
2018-12-14T21:05:40.067Z,8.77
2018-12-14T21:08:08.976Z,8.90
2018-12-14T21:10:37.301Z,9.03
2018-12-14T21:13:05.867Z,8.33
2018-12-14T21:15:33.987Z,8.93
2018-12-14T21:18:02.259Z,8.60
2018-12-14T21:20:30.407Z,8.33
2018-12-14T21:22:58.695Z,8.70
2018-12-14T21:25:27.403Z,9.30
2018-12-14T21:27:55.491Z,8.47
2018-12-14T21:30:24.136Z,9.33
2018-12-14T21:32:52.541Z,9.53
2018-12-14T21:35:20.679Z,8.53
2018-12-14T21:37:48.904Z,8.47
2018-12-14T21:40:17.363Z,9.10
2018-12-14T21:42:45.532Z,9.00
2018-12-14T21:45:13.750Z,8.70
2018-12-14T21:47:42.727Z,7.00
2018-12-14T21:50:10.998Z,9.37
2018-12-14T21:52:39.434Z,7.33
2018-12-14T21:55:07.639Z,8.10
2018-12-14T21:57:35.961Z,8.53
2018-12-14T22:00:07.324Z,8.07
2018-12-14T22:02:35.633Z,8.37
2018-12-14T22:05:06.076Z,8.03
2018-12-14T22:07:34.236Z,7.90
2018-12-14T22:10:02.751Z,8.07
2018-12-14T22:12:30.893Z,8.00
2018-12-14T22:14:59.267Z,8.00
2018-12-14T22:17:27.699Z,7.10
2018-12-14T22:19:56.063Z,7.67
2018-12-14T22:22:24.758Z,7.13
2018-12-14T22:24:56.815Z,7.43
2018-12-14T22:27:25.512Z,7.78
2018-12-14T22:29:53.699Z,7.85
2018-12-14T22:32:22.448Z,6.83
2018-12-14T22:34:50.888Z,6.73
2018-12-14T22:37:19.691Z,7.63
2018-12-14T22:39:48.623Z,7.00
2018-12-14T22:42:16.947Z,7.37
2018-12-14T22:44:45.286Z,7.20
2018-12-14T22:47:13.548Z,7.10
2018-12-14T22:49:42.312Z,7.13
2018-12-14T22:52:10.839Z,7.70
2018-12-14T22:54:39.679Z,6.30
2018-12-14T22:57:08.155Z,7.13
2018-12-14T22:59:37.096Z,6.43
2018-12-14T23:02:05.474Z,6.97
2018-12-14T23:04:34.703Z,7.00
2018-12-14T23:07:04.502Z,6.90
2018-12-14T23:09:32.801Z,6.63
2018-12-14T23:12:01.431Z,6.23
2018-12-14T23:14:29.687Z,6.70
2018-12-14T23:16:58.799Z,7.47
2018-12-14T23:19:27.379Z,6.47
2018-12-14T23:21:55.827Z,6.77
2018-12-14T23:24:24.058Z,6.87
2018-12-14T23:26:52.820Z,6.97
2018-12-14T23:29:21.943Z,6.67
2018-12-14T23:31:51.331Z,6.13
2018-12-14T23:34:19.459Z,6.33
2018-12-14T23:36:48.504Z,6.17
2018-12-14T23:39:17.611Z,6.33
2018-12-14T23:41:46.387Z,6.90
2018-12-14T23:44:15.191Z,6.70
2018-12-14T23:46:44.270Z,6.85
2018-12-14T23:49:12.423Z,7.00
2018-12-14T23:51:42.167Z,6.20
2018-12-14T23:54:11.835Z,5.93
2018-12-14T23:56:40.073Z,6.10
2018-12-14T23:59:08.518Z,5.58
